sensor_id;sensor_type;location;lat;lon;timestamp;pressure;altitude;pressure_sealevel;temperature;humidity
74346;BME280;62776;50.518;6.732;2022-09-06T00:01:14;96733.00;;;21.54;56.13
74346;BME280;62776;50.518;6.732;2022-09-06T00:04:01;96739.53;;;21.47;57.04
74346;BME280;62776;50.518;6.732;2022-09-06T00:06:48;96732.00;;;21.39;58.80
74346;BME280;62776;50.518;6.732;2022-09-06T00:09:34;96733.38;;;21.29;59.55
74346;BME280;62776;50.518;6.732;2022-09-06T00:12:20;96730.41;;;21.18;61.70
74346;BME280;62776;50.518;6.732;2022-09-06T00:15:06;96745.00;;;21.08;63.71
74346;BME280;62776;50.518;6.732;2022-09-06T00:17:52;96734.00;;;20.98;64.66
74346;BME280;62776;50.518;6.732;2022-09-06T00:20:38;96731.84;;;20.88;65.84
74346;BME280;62776;50.518;6.732;2022-09-06T00:23:26;96735.09;;;20.76;66.53
74346;BME280;62776;50.518;6.732;2022-09-06T00:26:12;96726.53;;;20.71;66.67
74346;BME280;62776;50.518;6.732;2022-09-06T00:28:58;96714.53;;;20.64;67.33
74346;BME280;62776;50.518;6.732;2022-09-06T00:31:44;96711.25;;;20.58;68.11
74346;BME280;62776;50.518;6.732;2022-09-06T00:34:30;96706.25;;;20.52;68.27
74346;BME280;62776;50.518;6.732;2022-09-06T00:37:16;96693.34;;;20.46;68.58
74346;BME280;62776;50.518;6.732;2022-09-06T00:40:02;96686.66;;;20.39;68.61
74346;BME280;62776;50.518;6.732;2022-09-06T00:42:48;96685.16;;;20.34;68.46
74346;BME280;62776;50.518;6.732;2022-09-06T00:45:34;96675.09;;;20.22;69.84
74346;BME280;62776;50.518;6.732;2022-09-06T00:48:20;96669.41;;;20.12;70.76
74346;BME280;62776;50.518;6.732;2022-09-06T00:51:08;96658.34;;;20.04;71.09
74346;BME280;62776;50.518;6.732;2022-09-06T00:53:55;96655.22;;;19.96;71.88
74346;BME280;62776;50.518;6.732;2022-09-06T00:56:42;96654.56;;;19.91;72.53
74346;BME280;62776;50.518;6.732;2022-09-06T00:59:30;96662.88;;;19.82;71.86
74346;BME280;62776;50.518;6.732;2022-09-06T01:02:17;96655.09;;;19.79;71.80
74346;BME280;62776;50.518;6.732;2022-09-06T01:05:05;96666.53;;;19.79;71.92
74346;BME280;62776;50.518;6.732;2022-09-06T01:08:15;96671.81;;;19.79;71.70
74346;BME280;62776;50.518;6.732;2022-09-06T01:11:14;96665.28;;;19.68;73.46
74346;BME280;62776;50.518;6.732;2022-09-06T01:17:20;96670.56;;;19.48;76.59
74346;BME280;62776;50.518;6.732;2022-09-06T01:20:15;96660.63;;;19.12;80.67
74346;BME280;62776;50.518;6.732;2022-09-06T01:28:47;96643.66;;;19.19;78.24
74346;BME280;62776;50.518;6.732;2022-09-06T01:31:44;96640.16;;;19.19;77.98
74346;BME280;62776;50.518;6.732;2022-09-06T01:34:41;96636.63;;;19.20;78.05
74346;BME280;62776;50.518;6.732;2022-09-06T01:37:29;96631.41;;;19.18;77.23
74346;BME280;62776;50.518;6.732;2022-09-06T01:40:15;96631.28;;;19.21;75.86
74346;BME280;62776;50.518;6.732;2022-09-06T01:43:04;96625.91;;;19.23;74.51
74346;BME280;62776;50.518;6.732;2022-09-06T01:48:52;96653.88;;;19.27;73.55
74346;BME280;62776;50.518;6.732;2022-09-06T01:54:58;96649.59;;;19.24;74.61
74346;BME280;62776;50.518;6.732;2022-09-06T02:00:58;96662.88;;;19.01;77.65
74346;BME280;62776;50.518;6.732;2022-09-06T02:03:59;96659.41;;;19.01;77.01
74346;BME280;62776;50.518;6.732;2022-09-06T02:06:49;96666.44;;;19.00;76.26
74346;BME280;62776;50.518;6.732;2022-09-06T02:09:39;96663.00;;;18.98;76.70
74346;BME280;62776;50.518;6.732;2022-09-06T02:12:27;96661.44;;;18.94;77.31
74346;BME280;62776;50.518;6.732;2022-09-06T02:15:18;96661.75;;;18.87;78.45
74346;BME280;62776;50.518;6.732;2022-09-06T02:18:08;96652.97;;;18.86;78.00
74346;BME280;62776;50.518;6.732;2022-09-06T02:20:56;96665.22;;;18.87;77.07
74346;BME280;62776;50.518;6.732;2022-09-06T02:23:43;96676.59;;;18.88;76.82
74346;BME280;62776;50.518;6.732;2022-09-06T02:26:31;96680.22;;;18.85;76.81
74346;BME280;62776;50.518;6.732;2022-09-06T02:29:19;96683.97;;;18.79;77.76
74346;BME280;62776;50.518;6.732;2022-09-06T02:32:12;96682.31;;;18.77;76.75
74346;BME280;62776;50.518;6.732;2022-09-06T02:35:04;96699.06;;;18.76;77.15
74346;BME280;62776;50.518;6.732;2022-09-06T02:37:52;96698.31;;;18.72;77.16
74346;BME280;62776;50.518;6.732;2022-09-06T02:40:38;96688.88;;;18.67;77.42
74346;BME280;62776;50.518;6.732;2022-09-06T02:43:25;96692.75;;;18.58;79.06
74346;BME280;62776;50.518;6.732;2022-09-06T02:46:11;96687.53;;;18.57;78.27
74346;BME280;62776;50.518;6.732;2022-09-06T02:48:57;96687.78;;;18.51;78.96
74346;BME280;62776;50.518;6.732;2022-09-06T02:51:43;96688.88;;;18.44;79.78
74346;BME280;62776;50.518;6.732;2022-09-06T02:54:29;96690.09;;;18.35;81.57
74346;BME280;62776;50.518;6.732;2022-09-06T02:57:15;96683.28;;;18.29;81.29
74346;BME280;62776;50.518;6.732;2022-09-06T03:00:02;96680.00;;;18.24;81.76
74346;BME280;62776;50.518;6.732;2022-09-06T03:02:49;96673.25;;;18.17;82.44
74346;BME280;62776;50.518;6.732;2022-09-06T03:05:35;96681.69;;;18.04;84.18
74346;BME280;62776;50.518;6.732;2022-09-06T03:08:21;96668.81;;;17.96;85.15
74346;BME280;62776;50.518;6.732;2022-09-06T03:11:08;96668.19;;;17.90;85.38
74346;BME280;62776;50.518;6.732;2022-09-06T03:13:54;96664.78;;;17.86;85.12
74346;BME280;62776;50.518;6.732;2022-09-06T03:16:40;96659.91;;;17.77;86.74
74346;BME280;62776;50.518;6.732;2022-09-06T03:19:26;96650.63;;;17.67;87.79
74346;BME280;62776;50.518;6.732;2022-09-06T03:22:12;96643.97;;;17.57;88.29
74346;BME280;62776;50.518;6.732;2022-09-06T03:24:58;96642.44;;;17.50;88.65
74346;BME280;62776;50.518;6.732;2022-09-06T03:27:44;96638.22;;;17.46;88.95
74346;BME280;62776;50.518;6.732;2022-09-06T03:30:30;96640.16;;;17.41;88.87
74346;BME280;62776;50.518;6.732;2022-09-06T03:33:16;96642.22;;;17.33;89.57
74346;BME280;62776;50.518;6.732;2022-09-06T03:36:02;96635.28;;;17.30;89.48
74346;BME280;62776;50.518;6.732;2022-09-06T03:38:48;96639.78;;;17.27;89.83
74346;BME280;62776;50.518;6.732;2022-09-06T03:41:35;96636.41;;;17.23;89.58
74346;BME280;62776;50.518;6.732;2022-09-06T03:44:22;96625.97;;;17.22;89.38
74346;BME280;62776;50.518;6.732;2022-09-06T03:47:08;96633.16;;;17.17;90.48
74346;BME280;62776;50.518;6.732;2022-09-06T03:49:54;96627.28;;;17.08;91.77
74346;BME280;62776;50.518;6.732;2022-09-06T03:52:40;96630.06;;;17.04;92.36
74346;BME280;62776;50.518;6.732;2022-09-06T03:55:26;96635.50;;;16.99;92.92
74346;BME280;62776;50.518;6.732;2022-09-06T03:58:12;96628.72;;;16.92;93.68
74346;BME280;62776;50.518;6.732;2022-09-06T04:01:03;96628.09;;;16.86;94.52
74346;BME280;62776;50.518;6.732;2022-09-06T04:03:49;96628.28;;;16.80;95.02
74346;BME280;62776;50.518;6.732;2022-09-06T04:06:35;96632.78;;;16.76;95.34
74346;BME280;62776;50.518;6.732;2022-09-06T04:09:21;96627.59;;;16.75;95.54
74346;BME280;62776;50.518;6.732;2022-09-06T04:12:08;96634.66;;;16.73;95.91
74346;BME280;62776;50.518;6.732;2022-09-06T04:14:54;96619.03;;;16.68;96.27
74346;BME280;62776;50.518;6.732;2022-09-06T04:17:43;96616.53;;;16.65;96.37
74346;BME280;62776;50.518;6.732;2022-09-06T04:20:30;96617.44;;;16.64;96.95
74346;BME280;62776;50.518;6.732;2022-09-06T04:23:16;96620.06;;;16.64;97.27
74346;BME280;62776;50.518;6.732;2022-09-06T04:26:02;96614.81;;;16.64;97.64
74346;BME280;62776;50.518;6.732;2022-09-06T04:28:48;96614.72;;;16.67;97.53
74346;BME280;62776;50.518;6.732;2022-09-06T04:31:34;96610.28;;;16.69;97.45
74346;BME280;62776;50.518;6.732;2022-09-06T04:34:20;96613.69;;;16.71;97.20
74346;BME280;62776;50.518;6.732;2022-09-06T04:37:06;96611.88;;;16.73;97.24
74346;BME280;62776;50.518;6.732;2022-09-06T04:39:52;96611.88;;;16.73;97.21
74346;BME280;62776;50.518;6.732;2022-09-06T04:42:38;96611.03;;;16.73;97.45
74346;BME280;62776;50.518;6.732;2022-09-06T04:45:24;96614.47;;;16.75;97.29
74346;BME280;62776;50.518;6.732;2022-09-06T04:48:10;96615.34;;;16.74;97.27
74346;BME280;62776;50.518;6.732;2022-09-06T04:50:56;96615.41;;;16.72;97.77
74346;BME280;62776;50.518;6.732;2022-09-06T04:53:43;96622.47;;;16.70;98.21
74346;BME280;62776;50.518;6.732;2022-09-06T04:56:29;96617.22;;;16.70;97.98
74346;BME280;62776;50.518;6.732;2022-09-06T04:59:15;96620.69;;;16.72;97.76
74346;BME280;62776;50.518;6.732;2022-09-06T05:02:01;96618.84;;;16.74;97.21
74346;BME280;62776;50.518;6.732;2022-09-06T05:04:47;96632.84;;;16.75;96.85
74346;BME280;62776;50.518;6.732;2022-09-06T05:07:33;96626.72;;;16.74;96.29
74346;BME280;62776;50.518;6.732;2022-09-06T05:10:19;96618.84;;;16.74;95.88
74346;BME280;62776;50.518;6.732;2022-09-06T05:13:05;96630.97;;;16.78;95.11
74346;BME280;62776;50.518;6.732;2022-09-06T05:15:51;96635.13;;;16.84;94.03
74346;BME280;62776;50.518;6.732;2022-09-06T05:18:37;96630.50;;;16.92;93.18
74346;BME280;62776;50.518;6.732;2022-09-06T05:21:23;96628.50;;;16.98;92.52
74346;BME280;62776;50.518;6.732;2022-09-06T05:24:10;96631.84;;;17.03;92.46
74346;BME280;62776;50.518;6.732;2022-09-06T05:26:56;96621.13;;;17.09;92.29
74346;BME280;62776;50.518;6.732;2022-09-06T05:29:42;96629.69;;;17.15;92.22
74346;BME280;62776;50.518;6.732;2022-09-06T05:32:28;96629.59;;;17.18;91.99
74346;BME280;62776;50.518;6.732;2022-09-06T05:35:14;96629.31;;;17.25;92.04
74346;BME280;62776;50.518;6.732;2022-09-06T05:38:00;96640.47;;;17.32;92.55
74346;BME280;62776;50.518;6.732;2022-09-06T05:40:46;96633.34;;;17.35;92.94
74346;BME280;62776;50.518;6.732;2022-09-06T05:43:32;96635.00;;;17.38;93.09
74346;BME280;62776;50.518;6.732;2022-09-06T05:46:18;96635.69;;;17.43;92.88
74346;BME280;62776;50.518;6.732;2022-09-06T05:49:04;96632.84;;;17.49;92.07
74346;BME280;62776;50.518;6.732;2022-09-06T05:51:52;96636.03;;;17.58;90.79
74346;BME280;62776;50.518;6.732;2022-09-06T05:54:38;96645.47;;;17.64;90.36
74346;BME280;62776;50.518;6.732;2022-09-06T05:57:24;96643.28;;;17.75;88.42
74346;BME280;62776;50.518;6.732;2022-09-06T06:00:10;96637.63;;;17.86;87.44
74346;BME280;62776;50.518;6.732;2022-09-06T06:02:57;96632.72;;;18.00;85.71
74346;BME280;62776;50.518;6.732;2022-09-06T06:05:46;96645.44;;;18.10;84.64
74346;BME280;62776;50.518;6.732;2022-09-06T06:08:33;96630.06;;;18.23;83.02
74346;BME280;62776;50.518;6.732;2022-09-06T06:11:19;96637.22;;;18.41;81.35
74346;BME280;62776;50.518;6.732;2022-09-06T06:14:05;96641.84;;;18.58;79.92
74346;BME280;62776;50.518;6.732;2022-09-06T06:16:51;96636.16;;;18.68;79.16
74346;BME280;62776;50.518;6.732;2022-09-06T06:19:37;96629.41;;;18.83;77.95
74346;BME280;62776;50.518;6.732;2022-09-06T06:22:24;96629.69;;;18.97;77.30
74346;BME280;62776;50.518;6.732;2022-09-06T06:25:10;96632.31;;;19.17;75.75
74346;BME280;62776;50.518;6.732;2022-09-06T06:27:56;96640.50;;;19.31;75.14
74346;BME280;62776;50.518;6.732;2022-09-06T06:30:42;96635.84;;;19.38;74.96
74346;BME280;62776;50.518;6.732;2022-09-06T06:33:28;96634.34;;;19.53;74.21
74346;BME280;62776;50.518;6.732;2022-09-06T06:39:02;96632.97;;;19.83;71.99
74346;BME280;62776;50.518;6.732;2022-09-06T06:41:48;96638.75;;;19.91;72.04
74346;BME280;62776;50.518;6.732;2022-09-06T06:44:35;96635.66;;;20.00;71.97
74346;BME280;62776;50.518;6.732;2022-09-06T06:47:21;96637.25;;;20.04;72.12
74346;BME280;62776;50.518;6.732;2022-09-06T06:50:07;96633.69;;;20.05;72.21
74346;BME280;62776;50.518;6.732;2022-09-06T06:52:53;96635.81;;;20.16;72.04
74346;BME280;62776;50.518;6.732;2022-09-06T06:55:40;96640.88;;;20.20;71.39
74346;BME280;62776;50.518;6.732;2022-09-06T06:58:29;96637.50;;;20.17;72.22
74346;BME280;62776;50.518;6.732;2022-09-06T07:01:16;96635.69;;;20.19;72.37
74346;BME280;62776;50.518;6.732;2022-09-06T07:04:02;96638.91;;;20.25;72.07
74346;BME280;62776;50.518;6.732;2022-09-06T07:06:51;96637.03;;;20.27;71.76
74346;BME280;62776;50.518;6.732;2022-09-06T07:09:38;96629.69;;;20.34;71.79
74346;BME280;62776;50.518;6.732;2022-09-06T07:12:24;96625.91;;;20.39;71.17
74346;BME280;62776;50.518;6.732;2022-09-06T07:15:10;96632.53;;;20.48;70.54
74346;BME280;62776;50.518;6.732;2022-09-06T07:17:56;96633.25;;;20.51;70.54
74346;BME280;62776;50.518;6.732;2022-09-06T07:20:42;96627.50;;;20.60;69.96
74346;BME280;62776;50.518;6.732;2022-09-06T07:23:28;96623.50;;;20.71;69.33
74346;BME280;62776;50.518;6.732;2022-09-06T07:26:14;96624.03;;;20.77;68.75
74346;BME280;62776;50.518;6.732;2022-09-06T07:29:02;96627.88;;;20.89;67.78
74346;BME280;62776;50.518;6.732;2022-09-06T07:31:48;96623.78;;;21.00;67.12
74346;BME280;62776;50.518;6.732;2022-09-06T07:34:34;96619.44;;;21.16;65.82
74346;BME280;62776;50.518;6.732;2022-09-06T07:37:22;96617.97;;;21.28;65.35
74346;BME280;62776;50.518;6.732;2022-09-06T07:40:08;96613.31;;;21.33;64.72
74346;BME280;62776;50.518;6.732;2022-09-06T07:42:55;96613.59;;;21.44;64.05
74346;BME280;62776;50.518;6.732;2022-09-06T07:45:41;96617.16;;;21.60;62.96
74346;BME280;62776;50.518;6.732;2022-09-06T07:48:30;96616.66;;;21.69;63.68
74346;BME280;62776;50.518;6.732;2022-09-06T07:51:20;96612.41;;;21.83;62.46
74346;BME280;62776;50.518;6.732;2022-09-06T07:54:06;96608.19;;;21.96;61.93
74346;BME280;62776;50.518;6.732;2022-09-06T07:56:52;96614.31;;;22.13;61.48
74346;BME280;62776;50.518;6.732;2022-09-06T07:59:38;96619.50;;;22.30;60.17
74346;BME280;62776;50.518;6.732;2022-09-06T08:02:24;96627.53;;;22.45;60.77
74346;BME280;62776;50.518;6.732;2022-09-06T08:05:10;96617.28;;;22.54;59.07
74346;BME280;62776;50.518;6.732;2022-09-06T08:07:56;96616.25;;;22.72;57.65
74346;BME280;62776;50.518;6.732;2022-09-06T08:10:42;96622.06;;;22.79;57.57
74346;BME280;62776;50.518;6.732;2022-09-06T08:13:28;96622.38;;;22.88;56.79
74346;BME280;62776;50.518;6.732;2022-09-06T08:16:14;96620.25;;;22.95;56.82
74346;BME280;62776;50.518;6.732;2022-09-06T08:19:03;96610.72;;;23.07;56.73
74346;BME280;62776;50.518;6.732;2022-09-06T08:21:49;96620.78;;;23.16;55.85
74346;BME280;62776;50.518;6.732;2022-09-06T08:24:38;96625.00;;;23.34;55.53
74346;BME280;62776;50.518;6.732;2022-09-06T08:27:24;96625.44;;;23.42;55.57
74346;BME280;62776;50.518;6.732;2022-09-06T08:30:10;96618.63;;;23.52;55.64
74346;BME280;62776;50.518;6.732;2022-09-06T08:32:56;96618.81;;;23.63;55.64
74346;BME280;62776;50.518;6.732;2022-09-06T08:35:42;96624.16;;;23.77;56.29
74346;BME280;62776;50.518;6.732;2022-09-06T08:38:28;96615.44;;;23.89;54.86
74346;BME280;62776;50.518;6.732;2022-09-06T08:44:08;96618.84;;;24.05;54.05
74346;BME280;62776;50.518;6.732;2022-09-06T08:49:42;96609.72;;;24.24;54.01
74346;BME280;62776;50.518;6.732;2022-09-06T09:01:13;96615.16;;;24.63;53.31
74346;BME280;62776;50.518;6.732;2022-09-06T09:04:02;96610.75;;;24.76;52.76
74346;BME280;62776;50.518;6.732;2022-09-06T09:06:50;96622.09;;;24.92;52.69
74346;BME280;62776;50.518;6.732;2022-09-06T09:09:38;96612.97;;;24.96;51.93
74346;BME280;62776;50.518;6.732;2022-09-06T09:12:24;96600.97;;;25.03;51.13
74346;BME280;62776;50.518;6.732;2022-09-06T09:15:11;96609.91;;;25.02;51.90
74346;BME280;62776;50.518;6.732;2022-09-06T09:17:58;96597.91;;;25.09;52.82
74346;BME280;62776;50.518;6.732;2022-09-06T09:20:44;96605.16;;;25.20;52.06
74346;BME280;62776;50.518;6.732;2022-09-06T09:23:30;96611.13;;;25.23;52.64
74346;BME280;62776;50.518;6.732;2022-09-06T09:26:16;96610.06;;;25.39;52.75
74346;BME280;62776;50.518;6.732;2022-09-06T09:31:52;96599.13;;;25.43;52.42
74346;BME280;62776;50.518;6.732;2022-09-06T09:34:38;96604.63;;;25.54;53.08
74346;BME280;62776;50.518;6.732;2022-09-06T09:37:25;96602.88;;;25.66;51.87
74346;BME280;62776;50.518;6.732;2022-09-06T09:40:17;96605.03;;;25.73;50.70
74346;BME280;62776;50.518;6.732;2022-09-06T09:43:16;96595.66;;;25.68;51.79
74346;BME280;62776;50.518;6.732;2022-09-06T09:54:48;96595.41;;;25.96;50.09
74346;BME280;62776;50.518;6.732;2022-09-06T09:57:42;96590.09;;;26.09;50.46
74346;BME280;62776;50.518;6.732;2022-09-06T10:03:18;96593.13;;;26.41;47.84
74346;BME280;62776;50.518;6.732;2022-09-06T10:06:09;96593.94;;;26.54;48.31
74346;BME280;62776;50.518;6.732;2022-09-06T10:08:56;96597.53;;;26.78;48.12
74346;BME280;62776;50.518;6.732;2022-09-06T10:12:16;96600.34;;;26.87;46.12
74346;BME280;62776;50.518;6.732;2022-09-06T10:14:54;96592.38;;;26.75;47.00
74346;BME280;62776;50.518;6.732;2022-09-06T10:17:48;96581.78;;;26.86;46.67
74346;BME280;62776;50.518;6.732;2022-09-06T10:20:41;96586.97;;;27.00;47.23
74346;BME280;62776;50.518;6.732;2022-09-06T10:23:36;96588.69;;;27.12;46.48
74346;BME280;62776;50.518;6.732;2022-09-06T10:29:13;96578.69;;;27.38;45.03
74346;BME280;62776;50.518;6.732;2022-09-06T10:40:59;96577.31;;;27.56;44.19
74346;BME280;62776;50.518;6.732;2022-09-06T10:43:57;96569.44;;;27.55;45.11
74346;BME280;62776;50.518;6.732;2022-09-06T10:46:44;96563.47;;;27.51;44.69
74346;BME280;62776;50.518;6.732;2022-09-06T10:49:31;96562.13;;;27.57;44.44
74346;BME280;62776;50.518;6.732;2022-09-06T10:52:30;96561.91;;;27.60;44.49
74346;BME280;62776;50.518;6.732;2022-09-06T10:55:18;96561.44;;;27.66;44.69
74346;BME280;62776;50.518;6.732;2022-09-06T10:58:04;96566.28;;;27.72;45.54
74346;BME280;62776;50.518;6.732;2022-09-06T11:00:51;96555.09;;;27.78;44.30
74346;BME280;62776;50.518;6.732;2022-09-06T11:03:39;96562.88;;;27.92;44.46
74346;BME280;62776;50.518;6.732;2022-09-06T11:06:28;96563.03;;;28.01;44.04
74346;BME280;62776;50.518;6.732;2022-09-06T11:09:50;96567.06;;;28.29;41.92
74346;BME280;62776;50.518;6.732;2022-09-06T11:12:31;96566.75;;;28.54;41.40
74346;BME280;62776;50.518;6.732;2022-09-06T11:15:20;96574.53;;;28.68;39.62
74346;BME280;62776;50.518;6.732;2022-09-06T11:18:15;96572.00;;;28.67;39.22
74346;BME280;62776;50.518;6.732;2022-09-06T11:27:03;96564.69;;;28.69;39.58
74346;BME280;62776;50.518;6.732;2022-09-06T11:29:49;96554.38;;;28.64;38.89
74346;BME280;62776;50.518;6.732;2022-09-06T11:32:45;96560.19;;;28.70;40.19
74346;BME280;62776;50.518;6.732;2022-09-06T11:35:34;96551.50;;;28.77;35.68
74346;BME280;62776;50.518;6.732;2022-09-06T11:38:22;96558.19;;;28.83;35.76
74346;BME280;62776;50.518;6.732;2022-09-06T11:41:13;96556.16;;;28.75;34.33
74346;BME280;62776;50.518;6.732;2022-09-06T11:44:00;96557.72;;;28.78;34.11
74346;BME280;62776;50.518;6.732;2022-09-06T11:46:58;96554.06;;;28.79;33.81
74346;BME280;62776;50.518;6.732;2022-09-06T11:49:45;96549.66;;;28.89;33.85
74346;BME280;62776;50.518;6.732;2022-09-06T11:58:31;96552.66;;;28.95;31.87
74346;BME280;62776;50.518;6.732;2022-09-06T12:04:06;96531.19;;;29.06;31.67
74346;BME280;62776;50.518;6.732;2022-09-06T12:09:54;96538.56;;;29.25;29.45
74346;BME280;62776;50.518;6.732;2022-09-06T12:12:41;96532.81;;;29.30;29.17
74346;BME280;62776;50.518;6.732;2022-09-06T12:15:30;96522.25;;;29.28;28.80
74346;BME280;62776;50.518;6.732;2022-09-06T12:18:51;96528.81;;;29.24;29.40
74346;BME280;62776;50.518;6.732;2022-09-06T12:21:32;96534.66;;;29.18;26.85
74346;BME280;62776;50.518;6.732;2022-09-06T12:27:23;96537.06;;;29.21;27.76
74346;BME280;62776;50.518;6.732;2022-09-06T12:30:12;96535.38;;;29.20;27.90
74346;BME280;62776;50.518;6.732;2022-09-06T12:36:13;96535.56;;;29.39;27.25
74346;BME280;62776;50.518;6.732;2022-09-06T12:39:10;96533.59;;;29.41;26.47
74346;BME280;62776;50.518;6.732;2022-09-06T12:42:00;96532.34;;;29.45;26.80
74346;BME280;62776;50.518;6.732;2022-09-06T12:44:48;96533.44;;;29.63;27.47
74346;BME280;62776;50.518;6.732;2022-09-06T12:47:36;96533.38;;;29.74;26.96
74346;BME280;62776;50.518;6.732;2022-09-06T12:50:24;96534.78;;;29.78;27.57
74346;BME280;62776;50.518;6.732;2022-09-06T12:53:18;96531.06;;;29.91;28.11
74346;BME280;62776;50.518;6.732;2022-09-06T12:56:08;96527.97;;;29.95;27.50
74346;BME280;62776;50.518;6.732;2022-09-06T12:59:13;96521.59;;;29.87;26.76
74346;BME280;62776;50.518;6.732;2022-09-06T13:02:10;96513.59;;;29.96;26.89
74346;BME280;62776;50.518;6.732;2022-09-06T13:05:02;96513.19;;;30.01;27.41
74346;BME280;62776;50.518;6.732;2022-09-06T13:07:53;96505.91;;;30.22;27.29
74346;BME280;62776;50.518;6.732;2022-09-06T13:10:41;96507.19;;;30.18;26.75
74346;BME280;62776;50.518;6.732;2022-09-06T13:13:27;96510.78;;;29.98;26.88
74346;BME280;62776;50.518;6.732;2022-09-06T13:16:24;96505.00;;;29.72;27.35
74346;BME280;62776;50.518;6.732;2022-09-06T13:19:14;96506.72;;;29.52;28.41
74346;BME280;62776;50.518;6.732;2022-09-06T13:22:02;96511.50;;;29.49;28.06
74346;BME280;62776;50.518;6.732;2022-09-06T13:24:50;96496.22;;;29.40;27.59
74346;BME280;62776;50.518;6.732;2022-09-06T13:27:43;96493.34;;;29.52;28.30
74346;BME280;62776;50.518;6.732;2022-09-06T13:30:38;96502.00;;;29.65;28.93
74346;BME280;62776;50.518;6.732;2022-09-06T13:33:26;96499.13;;;29.57;28.26
74346;BME280;62776;50.518;6.732;2022-09-06T13:38:58;96498.88;;;29.60;28.14
74346;BME280;62776;50.518;6.732;2022-09-06T13:41:53;96486.38;;;29.70;28.10
74346;BME280;62776;50.518;6.732;2022-09-06T13:44:40;96490.50;;;29.74;27.15
74346;BME280;62776;50.518;6.732;2022-09-06T13:47:26;96484.31;;;29.83;27.63
74346;BME280;62776;50.518;6.732;2022-09-06T13:50:13;96478.31;;;30.01;27.06
74346;BME280;62776;50.518;6.732;2022-09-06T13:52:59;96476.09;;;30.06;27.16
74346;BME280;62776;50.518;6.732;2022-09-06T13:55:46;96472.16;;;30.10;27.35
74346;BME280;62776;50.518;6.732;2022-09-06T13:58:33;96475.66;;;30.01;27.63
74346;BME280;62776;50.518;6.732;2022-09-06T14:01:19;96477.78;;;30.16;27.54
74346;BME280;62776;50.518;6.732;2022-09-06T14:04:05;96482.00;;;30.39;27.12
74346;BME280;62776;50.518;6.732;2022-09-06T14:06:51;96469.38;;;30.21;27.81
74346;BME280;62776;50.518;6.732;2022-09-06T14:09:38;96480.72;;;29.94;27.28
74346;BME280;62776;50.518;6.732;2022-09-06T14:12:24;96478.69;;;29.87;27.64
74346;BME280;62776;50.518;6.732;2022-09-06T14:15:10;96472.81;;;29.93;27.69
74346;BME280;62776;50.518;6.732;2022-09-06T14:17:58;96475.38;;;31.11;27.46
74346;BME280;62776;50.518;6.732;2022-09-06T14:20:50;96469.25;;;33.18;25.45
74346;BME280;62776;50.518;6.732;2022-09-06T14:23:36;96462.66;;;34.90;23.37
74346;BME280;62776;50.518;6.732;2022-09-06T14:26:22;96460.22;;;35.92;21.72
74346;BME280;62776;50.518;6.732;2022-09-06T14:29:08;96461.00;;;35.21;21.62
74346;BME280;62776;50.518;6.732;2022-09-06T14:31:54;96473.47;;;33.03;23.27
74346;BME280;62776;50.518;6.732;2022-09-06T14:34:40;96463.88;;;34.04;23.22
74346;BME280;62776;50.518;6.732;2022-09-06T14:37:26;96459.75;;;35.80;20.91
74346;BME280;62776;50.518;6.732;2022-09-06T14:40:12;96452.19;;;37.07;20.51
74346;BME280;62776;50.518;6.732;2022-09-06T14:42:58;96448.47;;;37.45;19.83
74346;BME280;62776;50.518;6.732;2022-09-06T14:45:44;96435.16;;;36.06;21.28
74346;BME280;62776;50.518;6.732;2022-09-06T14:48:30;96434.25;;;33.70;23.26
74346;BME280;62776;50.518;6.732;2022-09-06T14:51:17;96433.16;;;32.41;24.94
74346;BME280;62776;50.518;6.732;2022-09-06T14:54:07;96432.78;;;31.35;25.41
74346;BME280;62776;50.518;6.732;2022-09-06T14:56:54;96428.19;;;30.89;26.70
74346;BME280;62776;50.518;6.732;2022-09-06T14:59:40;96432.84;;;30.39;26.60
74346;BME280;62776;50.518;6.732;2022-09-06T15:02:26;96430.88;;;29.92;27.41
74346;BME280;62776;50.518;6.732;2022-09-06T15:05:13;96434.13;;;29.55;27.87
74346;BME280;62776;50.518;6.732;2022-09-06T15:07:59;96431.56;;;29.44;28.62
74346;BME280;62776;50.518;6.732;2022-09-06T15:10:51;96423.78;;;30.21;27.92
74346;BME280;62776;50.518;6.732;2022-09-06T15:13:37;96422.69;;;33.08;24.49
74346;BME280;62776;50.518;6.732;2022-09-06T15:16:25;96410.09;;;34.52;22.99
74346;BME280;62776;50.518;6.732;2022-09-06T15:19:11;96405.06;;;33.40;24.62
74346;BME280;62776;50.518;6.732;2022-09-06T15:21:57;96404.38;;;32.24;25.44
74346;BME280;62776;50.518;6.732;2022-09-06T15:24:43;96407.38;;;31.20;26.09
74346;BME280;62776;50.518;6.732;2022-09-06T15:27:30;96400.94;;;30.46;26.66
74346;BME280;62776;50.518;6.732;2022-09-06T15:30:16;96403.84;;;30.14;27.66
74346;BME280;62776;50.518;6.732;2022-09-06T15:33:02;96397.84;;;29.81;28.03
74346;BME280;62776;50.518;6.732;2022-09-06T15:35:52;96404.66;;;29.55;28.59
74346;BME280;62776;50.518;6.732;2022-09-06T15:38:40;96411.34;;;29.40;29.52
74346;BME280;62776;50.518;6.732;2022-09-06T15:41:28;96410.47;;;29.30;32.03
74346;BME280;62776;50.518;6.732;2022-09-06T15:44:15;96403.16;;;29.11;33.05
74346;BME280;62776;50.518;6.732;2022-09-06T15:47:02;96406.28;;;28.96;33.85
74346;BME280;62776;50.518;6.732;2022-09-06T15:49:49;96407.38;;;28.84;33.63
74346;BME280;62776;50.518;6.732;2022-09-06T15:52:35;96404.75;;;28.73;34.39
74346;BME280;62776;50.518;6.732;2022-09-06T15:55:21;96402.09;;;28.61;34.96
74346;BME280;62776;50.518;6.732;2022-09-06T15:58:26;96405.53;;;28.52;35.32
74346;BME280;62776;50.518;6.732;2022-09-06T16:01:13;96403.63;;;28.43;36.05
74346;BME280;62776;50.518;6.732;2022-09-06T16:04:00;96402.47;;;28.36;36.65
74346;BME280;62776;50.518;6.732;2022-09-06T16:06:50;96407.59;;;28.28;36.77
74346;BME280;62776;50.518;6.732;2022-09-06T16:09:37;96403.47;;;28.24;37.20
74346;BME280;62776;50.518;6.732;2022-09-06T16:12:23;96395.84;;;28.20;37.98
74346;BME280;62776;50.518;6.732;2022-09-06T16:15:09;96404.50;;;28.12;38.05
74346;BME280;62776;50.518;6.732;2022-09-06T16:17:55;96401.34;;;28.07;37.97